sensor_id;sensor_type;location;lat;lon;timestamp;P1;durP1;ratioP1;P2;durP2;ratioP2
53925;SDS011;39836;52.754;6.866;2022-07-23T00:00:46;5.53;;;2.30;;
53925;SDS011;39836;52.754;6.866;2022-07-23T00:03:12;5.05;;;2.08;;
53925;SDS011;39836;52.754;6.866;2022-07-23T00:05:38;6.70;;;2.20;;
53925;SDS011;39836;52.754;6.866;2022-07-23T00:08:04;7.70;;;2.40;;
53925;SDS011;39836;52.754;6.866;2022-07-23T00:10:30;8.65;;;2.72;;
53925;SDS011;39836;52.754;6.866;2022-07-23T00:12:56;6.90;;;2.30;;
53925;SDS011;39836;52.754;6.866;2022-07-23T00:15:22;6.13;;;2.10;;
53925;SDS011;39836;52.754;6.866;2022-07-23T00:17:47;10.85;;;2.70;;
53925;SDS011;39836;52.754;6.866;2022-07-23T00:20:13;7.45;;;2.70;;
53925;SDS011;39836;52.754;6.866;2022-07-23T00:22:49;7.93;;;2.90;;
53925;SDS011;39836;52.754;6.866;2022-07-23T00:25:16;4.53;;;3.30;;
53925;SDS011;39836;52.754;6.866;2022-07-23T00:27:42;5.95;;;3.80;;
53925;SDS011;39836;52.754;6.866;2022-07-23T00:30:08;5.82;;;3.85;;
53925;SDS011;39836;52.754;6.866;2022-07-23T00:32:51;8.65;;;4.50;;
53925;SDS011;39836;52.754;6.866;2022-07-23T00:35:21;9.98;;;4.20;;
53925;SDS011;39836;52.754;6.866;2022-07-23T00:37:48;10.18;;;4.60;;
53925;SDS011;39836;52.754;6.866;2022-07-23T00:40:14;9.20;;;5.07;;
53925;SDS011;39836;52.754;6.866;2022-07-23T00:42:40;12.55;;;4.82;;
53925;SDS011;39836;52.754;6.866;2022-07-23T00:45:06;6.50;;;4.10;;
53925;SDS011;39836;52.754;6.866;2022-07-23T00:47:32;11.02;;;3.90;;
53925;SDS011;39836;52.754;6.866;2022-07-23T00:49:59;7.75;;;3.83;;
53925;SDS011;39836;52.754;6.866;2022-07-23T00:52:25;5.43;;;3.60;;
53925;SDS011;39836;52.754;6.866;2022-07-23T00:54:50;5.65;;;3.70;;
53925;SDS011;39836;52.754;6.866;2022-07-23T00:57:16;8.20;;;4.35;;
53925;SDS011;39836;52.754;6.866;2022-07-23T00:59:42;10.25;;;4.70;;
53925;SDS011;39836;52.754;6.866;2022-07-23T01:02:09;6.10;;;4.10;;
53925;SDS011;39836;52.754;6.866;2022-07-23T01:04:34;6.88;;;4.38;;
53925;SDS011;39836;52.754;6.866;2022-07-23T01:07:00;7.90;;;4.75;;
53925;SDS011;39836;52.754;6.866;2022-07-23T01:09:26;6.35;;;4.35;;
53925;SDS011;39836;52.754;6.866;2022-07-23T01:11:53;8.13;;;4.32;;
53925;SDS011;39836;52.754;6.866;2022-07-23T01:14:20;6.57;;;3.90;;
53925;SDS011;39836;52.754;6.866;2022-07-23T01:16:46;6.80;;;3.60;;
53925;SDS011;39836;52.754;6.866;2022-07-23T01:19:13;6.25;;;4.32;;
53925;SDS011;39836;52.754;6.866;2022-07-23T01:21:41;7.05;;;4.05;;
53925;SDS011;39836;52.754;6.866;2022-07-23T01:24:08;6.50;;;4.32;;
53925;SDS011;39836;52.754;6.866;2022-07-23T01:26:35;8.55;;;4.40;;
53925;SDS011;39836;52.754;6.866;2022-07-23T01:29:01;7.30;;;4.25;;
53925;SDS011;39836;52.754;6.866;2022-07-23T01:31:28;5.72;;;3.95;;
53925;SDS011;39836;52.754;6.866;2022-07-23T01:33:53;8.00;;;5.03;;
53925;SDS011;39836;52.754;6.866;2022-07-23T01:36:19;8.75;;;4.20;;
53925;SDS011;39836;52.754;6.866;2022-07-23T01:38:45;14.40;;;5.70;;
53925;SDS011;39836;52.754;6.866;2022-07-23T01:41:10;10.32;;;5.68;;
53925;SDS011;39836;52.754;6.866;2022-07-23T01:43:36;7.80;;;5.50;;
53925;SDS011;39836;52.754;6.866;2022-07-23T01:46:02;8.27;;;4.95;;
53925;SDS011;39836;52.754;6.866;2022-07-23T01:48:27;10.10;;;5.43;;
53925;SDS011;39836;52.754;6.866;2022-07-23T01:50:53;10.45;;;5.00;;
53925;SDS011;39836;52.754;6.866;2022-07-23T01:53:19;10.40;;;5.18;;
53925;SDS011;39836;52.754;6.866;2022-07-23T01:55:44;7.03;;;4.80;;
53925;SDS011;39836;52.754;6.866;2022-07-23T01:58:10;9.88;;;4.68;;
53925;SDS011;39836;52.754;6.866;2022-07-23T02:00:36;8.68;;;4.72;;
53925;SDS011;39836;52.754;6.866;2022-07-23T02:03:02;7.38;;;5.13;;
53925;SDS011;39836;52.754;6.866;2022-07-23T02:05:27;7.00;;;4.95;;
53925;SDS011;39836;52.754;6.866;2022-07-23T02:07:54;6.28;;;4.90;;
53925;SDS011;39836;52.754;6.866;2022-07-23T02:10:20;7.93;;;4.93;;
53925;SDS011;39836;52.754;6.866;2022-07-23T02:12:46;11.05;;;5.43;;
53925;SDS011;39836;52.754;6.866;2022-07-23T02:15:12;13.15;;;5.20;;
53925;SDS011;39836;52.754;6.866;2022-07-23T02:17:38;7.97;;;4.97;;
53925;SDS011;39836;52.754;6.866;2022-07-23T02:20:04;6.90;;;5.30;;
53925;SDS011;39836;52.754;6.866;2022-07-23T02:22:31;7.70;;;5.20;;
53925;SDS011;39836;52.754;6.866;2022-07-23T02:24:56;8.25;;;5.43;;
53925;SDS011;39836;52.754;6.866;2022-07-23T02:27:22;7.22;;;5.45;;
53925;SDS011;39836;52.754;6.866;2022-07-23T02:29:48;8.48;;;5.63;;
53925;SDS011;39836;52.754;6.866;2022-07-23T02:32:14;8.27;;;4.53;;
53925;SDS011;39836;52.754;6.866;2022-07-23T02:34:40;13.35;;;4.63;;
53925;SDS011;39836;52.754;6.866;2022-07-23T02:37:05;8.63;;;5.40;;
53925;SDS011;39836;52.754;6.866;2022-07-23T02:39:33;8.45;;;6.07;;
53925;SDS011;39836;52.754;6.866;2022-07-23T02:41:59;5.70;;;4.28;;
53925;SDS011;39836;52.754;6.866;2022-07-23T02:44:25;5.95;;;4.18;;
53925;SDS011;39836;52.754;6.866;2022-07-23T02:46:51;5.47;;;2.97;;
53925;SDS011;39836;52.754;6.866;2022-07-23T02:49:16;3.53;;;1.70;;
53925;SDS011;39836;52.754;6.866;2022-07-23T02:51:42;7.07;;;2.30;;
53925;SDS011;39836;52.754;6.866;2022-07-23T02:54:08;4.28;;;2.63;;
53925;SDS011;39836;52.754;6.866;2022-07-23T02:56:33;4.45;;;2.30;;
53925;SDS011;39836;52.754;6.866;2022-07-23T02:58:59;3.72;;;2.25;;
53925;SDS011;39836;52.754;6.866;2022-07-23T03:01:25;5.55;;;2.97;;
53925;SDS011;39836;52.754;6.866;2022-07-23T03:03:51;5.05;;;2.92;;
53925;SDS011;39836;52.754;6.866;2022-07-23T03:06:16;5.53;;;3.60;;
53925;SDS011;39836;52.754;6.866;2022-07-23T03:08:42;4.63;;;3.33;;
53925;SDS011;39836;52.754;6.866;2022-07-23T03:11:08;7.63;;;5.60;;
53925;SDS011;39836;52.754;6.866;2022-07-23T03:13:36;9.30;;;5.57;;
53925;SDS011;39836;52.754;6.866;2022-07-23T03:16:04;7.35;;;4.88;;
53925;SDS011;39836;52.754;6.866;2022-07-23T03:18:30;11.15;;;6.57;;
53925;SDS011;39836;52.754;6.866;2022-07-23T03:20:56;4.65;;;3.20;;
53925;SDS011;39836;52.754;6.866;2022-07-23T03:23:22;8.68;;;5.13;;
53925;SDS011;39836;52.754;6.866;2022-07-23T03:25:47;5.93;;;3.40;;
53925;SDS011;39836;52.754;6.866;2022-07-23T03:28:14;6.10;;;2.85;;
53925;SDS011;39836;52.754;6.866;2022-07-23T03:30:41;2.72;;;2.10;;
53925;SDS011;39836;52.754;6.866;2022-07-23T03:33:07;4.05;;;2.90;;
53925;SDS011;39836;52.754;6.866;2022-07-23T03:35:33;3.20;;;2.67;;
53925;SDS011;39836;52.754;6.866;2022-07-23T03:37:59;3.65;;;2.65;;
53925;SDS011;39836;52.754;6.866;2022-07-23T03:40:24;3.70;;;3.20;;
53925;SDS011;39836;52.754;6.866;2022-07-23T03:42:50;4.32;;;3.63;;
53925;SDS011;39836;52.754;6.866;2022-07-23T03:45:16;2.95;;;2.63;;
53925;SDS011;39836;52.754;6.866;2022-07-23T03:47:41;2.60;;;2.20;;
53925;SDS011;39836;52.754;6.866;2022-07-23T03:50:08;13.20;;;2.20;;
53925;SDS011;39836;52.754;6.866;2022-07-23T03:52:34;9.27;;;2.20;;
53925;SDS011;39836;52.754;6.866;2022-07-23T03:55:01;3.17;;;1.90;;
53925;SDS011;39836;52.754;6.866;2022-07-23T03:57:27;4.80;;;2.47;;
53925;SDS011;39836;52.754;6.866;2022-07-23T03:59:52;7.00;;;2.90;;
53925;SDS011;39836;52.754;6.866;2022-07-23T04:02:18;14.63;;;2.67;;
53925;SDS011;39836;52.754;6.866;2022-07-23T04:04:44;35.85;;;2.50;;
53925;SDS011;39836;52.754;6.866;2022-07-23T04:07:09;31.92;;;2.53;;
53925;SDS011;39836;52.754;6.866;2022-07-23T04:09:35;3.28;;;1.73;;
53925;SDS011;39836;52.754;6.866;2022-07-23T04:12:01;14.65;;;2.63;;
53925;SDS011;39836;52.754;6.866;2022-07-23T04:14:26;6.53;;;2.30;;
53925;SDS011;39836;52.754;6.866;2022-07-23T04:16:52;33.47;;;3.33;;
53925;SDS011;39836;52.754;6.866;2022-07-23T04:19:18;4.13;;;2.92;;
53925;SDS011;39836;52.754;6.866;2022-07-23T04:21:43;3.08;;;2.35;;
53925;SDS011;39836;52.754;6.866;2022-07-23T04:24:09;8.32;;;3.38;;
53925;SDS011;39836;52.754;6.866;2022-07-23T04:26:34;4.25;;;2.88;;
53925;SDS011;39836;52.754;6.866;2022-07-23T04:29:00;8.27;;;4.43;;
53925;SDS011;39836;52.754;6.866;2022-07-23T04:31:26;11.85;;;5.07;;
53925;SDS011;39836;52.754;6.866;2022-07-23T04:33:51;8.55;;;5.47;;
53925;SDS011;39836;52.754;6.866;2022-07-23T04:36:17;7.30;;;5.70;;
53925;SDS011;39836;52.754;6.866;2022-07-23T04:38:43;9.48;;;5.18;;
53925;SDS011;39836;52.754;6.866;2022-07-23T04:41:08;7.97;;;4.68;;
53925;SDS011;39836;52.754;6.866;2022-07-23T04:43:34;5.35;;;3.70;;
53925;SDS011;39836;52.754;6.866;2022-07-23T04:46:00;5.57;;;4.20;;
53925;SDS011;39836;52.754;6.866;2022-07-23T04:48:25;8.10;;;5.70;;
53925;SDS011;39836;52.754;6.866;2022-07-23T04:50:51;9.93;;;5.78;;
53925;SDS011;39836;52.754;6.866;2022-07-23T04:53:16;10.10;;;6.13;;
53925;SDS011;39836;52.754;6.866;2022-07-23T04:55:43;9.27;;;6.60;;
53925;SDS011;39836;52.754;6.866;2022-07-23T04:58:09;14.48;;;7.07;;
53925;SDS011;39836;52.754;6.866;2022-07-23T05:00:35;12.35;;;7.45;;
53925;SDS011;39836;52.754;6.866;2022-07-23T05:03:00;10.73;;;6.63;;
53925;SDS011;39836;52.754;6.866;2022-07-23T05:05:26;11.30;;;6.93;;
53925;SDS011;39836;52.754;6.866;2022-07-23T05:07:52;15.23;;;7.15;;
53925;SDS011;39836;52.754;6.866;2022-07-23T05:10:18;11.05;;;7.47;;
53925;SDS011;39836;52.754;6.866;2022-07-23T05:12:43;9.98;;;6.72;;
53925;SDS011;39836;52.754;6.866;2022-07-23T05:15:09;13.50;;;7.05;;
53925;SDS011;39836;52.754;6.866;2022-07-23T05:17:35;11.57;;;7.50;;
53925;SDS011;39836;52.754;6.866;2022-07-23T05:20:00;11.55;;;7.38;;
53925;SDS011;39836;52.754;6.866;2022-07-23T05:22:26;14.80;;;8.48;;
53925;SDS011;39836;52.754;6.866;2022-07-23T05:24:52;11.00;;;6.90;;
53925;SDS011;39836;52.754;6.866;2022-07-23T05:27:18;17.38;;;6.47;;
53925;SDS011;39836;52.754;6.866;2022-07-23T05:29:43;11.25;;;6.85;;
53925;SDS011;39836;52.754;6.866;2022-07-23T05:32:09;11.60;;;6.75;;
53925;SDS011;39836;52.754;6.866;2022-07-23T05:34:35;12.45;;;5.50;;
53925;SDS011;39836;52.754;6.866;2022-07-23T05:37:00;9.40;;;5.78;;
53925;SDS011;39836;52.754;6.866;2022-07-23T05:39:26;10.63;;;6.13;;
53925;SDS011;39836;52.754;6.866;2022-07-23T05:41:51;14.15;;;6.53;;
53925;SDS011;39836;52.754;6.866;2022-07-23T05:44:17;12.98;;;6.55;;
53925;SDS011;39836;52.754;6.866;2022-07-23T05:46:43;11.43;;;6.25;;
53925;SDS011;39836;52.754;6.866;2022-07-23T05:49:08;11.98;;;5.95;;
53925;SDS011;39836;52.754;6.866;2022-07-23T05:51:34;12.60;;;6.13;;
53925;SDS011;39836;52.754;6.866;2022-07-23T05:54:00;12.35;;;6.18;;
53925;SDS011;39836;52.754;6.866;2022-07-23T05:56:25;10.18;;;5.72;;
53925;SDS011;39836;52.754;6.866;2022-07-23T05:58:51;9.82;;;5.53;;
53925;SDS011;39836;52.754;6.866;2022-07-23T06:01:17;9.27;;;5.38;;
53925;SDS011;39836;52.754;6.866;2022-07-23T06:03:42;11.45;;;6.05;;
53925;SDS011;39836;52.754;6.866;2022-07-23T06:06:08;11.73;;;5.95;;
53925;SDS011;39836;52.754;6.866;2022-07-23T06:08:33;8.25;;;5.93;;
53925;SDS011;39836;52.754;6.866;2022-07-23T06:10:59;9.93;;;5.50;;
53925;SDS011;39836;52.754;6.866;2022-07-23T06:13:25;12.20;;;5.97;;
53925;SDS011;39836;52.754;6.866;2022-07-23T06:15:50;13.90;;;6.45;;
53925;SDS011;39836;52.754;6.866;2022-07-23T06:18:16;9.32;;;6.10;;
53925;SDS011;39836;52.754;6.866;2022-07-23T06:20:42;12.38;;;6.55;;
53925;SDS011;39836;52.754;6.866;2022-07-23T06:23:08;11.85;;;5.72;;
53925;SDS011;39836;52.754;6.866;2022-07-23T06:25:33;11.15;;;5.60;;
53925;SDS011;39836;52.754;6.866;2022-07-23T06:27:59;11.10;;;5.40;;
53925;SDS011;39836;52.754;6.866;2022-07-23T06:30:25;13.95;;;6.45;;
53925;SDS011;39836;52.754;6.866;2022-07-23T06:32:51;11.93;;;5.65;;
53925;SDS011;39836;52.754;6.866;2022-07-23T06:35:17;8.93;;;4.65;;
53925;SDS011;39836;52.754;6.866;2022-07-23T06:37:42;10.07;;;5.20;;
53925;SDS011;39836;52.754;6.866;2022-07-23T06:40:10;9.15;;;5.00;;
53925;SDS011;39836;52.754;6.866;2022-07-23T06:42:36;10.60;;;4.20;;
53925;SDS011;39836;52.754;6.866;2022-07-23T06:45:04;7.05;;;3.58;;
53925;SDS011;39836;52.754;6.866;2022-07-23T06:47:33;11.00;;;4.07;;
53925;SDS011;39836;52.754;6.866;2022-07-23T06:49:58;7.85;;;3.58;;
53925;SDS011;39836;52.754;6.866;2022-07-23T06:52:24;7.68;;;3.40;;
53925;SDS011;39836;52.754;6.866;2022-07-23T06:54:51;6.70;;;4.05;;
53925;SDS011;39836;52.754;6.866;2022-07-23T06:57:17;5.78;;;2.92;;
53925;SDS011;39836;52.754;6.866;2022-07-23T06:59:43;9.73;;;3.35;;
53925;SDS011;39836;52.754;6.866;2022-07-23T07:02:08;8.20;;;3.33;;
53925;SDS011;39836;52.754;6.866;2022-07-23T07:04:35;6.97;;;3.15;;
53925;SDS011;39836;52.754;6.866;2022-07-23T07:07:00;5.50;;;2.95;;
53925;SDS011;39836;52.754;6.866;2022-07-23T07:09:26;10.20;;;2.70;;
53925;SDS011;39836;52.754;6.866;2022-07-23T07:11:52;6.97;;;2.33;;
53925;SDS011;39836;52.754;6.866;2022-07-23T07:14:18;5.55;;;2.25;;
53925;SDS011;39836;52.754;6.866;2022-07-23T07:16:43;11.70;;;2.40;;
53925;SDS011;39836;52.754;6.866;2022-07-23T07:19:09;6.38;;;1.90;;
53925;SDS011;39836;52.754;6.866;2022-07-23T07:21:35;6.30;;;2.08;;
53925;SDS011;39836;52.754;6.866;2022-07-23T07:24:00;6.85;;;1.63;;
53925;SDS011;39836;52.754;6.866;2022-07-23T07:26:26;6.20;;;2.47;;
53925;SDS011;39836;52.754;6.866;2022-07-23T07:28:52;4.43;;;2.22;;
53925;SDS011;39836;52.754;6.866;2022-07-23T07:31:18;4.80;;;2.08;;
53925;SDS011;39836;52.754;6.866;2022-07-23T07:33:43;3.55;;;1.80;;
53925;SDS011;39836;52.754;6.866;2022-07-23T07:36:09;6.28;;;2.40;;
53925;SDS011;39836;52.754;6.866;2022-07-23T07:38:35;5.18;;;2.30;;
53925;SDS011;39836;52.754;6.866;2022-07-23T07:41:01;4.65;;;2.08;;
53925;SDS011;39836;52.754;6.866;2022-07-23T07:43:26;4.82;;;2.00;;
53925;SDS011;39836;52.754;6.866;2022-07-23T07:45:52;5.55;;;2.28;;
53925;SDS011;39836;52.754;6.866;2022-07-23T07:48:18;7.63;;;2.13;;
53925;SDS011;39836;52.754;6.866;2022-07-23T07:50:43;5.95;;;2.05;;
53925;SDS011;39836;52.754;6.866;2022-07-23T07:53:09;5.45;;;2.20;;
53925;SDS011;39836;52.754;6.866;2022-07-23T07:55:35;5.45;;;2.42;;
53925;SDS011;39836;52.754;6.866;2022-07-23T07:58:01;3.83;;;2.25;;
53925;SDS011;39836;52.754;6.866;2022-07-23T08:00:26;5.15;;;2.22;;
53925;SDS011;39836;52.754;6.866;2022-07-23T08:02:53;8.30;;;2.15;;
53925;SDS011;39836;52.754;6.866;2022-07-23T08:05:21;5.20;;;2.05;;
53925;SDS011;39836;52.754;6.866;2022-07-23T08:07:50;5.03;;;1.85;;
53925;SDS011;39836;52.754;6.866;2022-07-23T08:10:16;4.78;;;2.03;;
53925;SDS011;39836;52.754;6.866;2022-07-23T08:12:46;6.35;;;2.15;;
53925;SDS011;39836;52.754;6.866;2022-07-23T08:15:14;5.55;;;1.70;;
53925;SDS011;39836;52.754;6.866;2022-07-23T08:17:41;4.22;;;1.65;;
53925;SDS011;39836;52.754;6.866;2022-07-23T08:20:08;2.67;;;1.50;;
53925;SDS011;39836;52.754;6.866;2022-07-23T08:22:49;5.63;;;1.50;;
53925;SDS011;39836;52.754;6.866;2022-07-23T08:25:20;5.45;;;1.20;;
53925;SDS011;39836;52.754;6.866;2022-07-23T08:27:51;1.98;;;1.30;;
53925;SDS011;39836;52.754;6.866;2022-07-23T08:30:17;3.92;;;1.40;;
53925;SDS011;39836;52.754;6.866;2022-07-23T08:32:51;1.60;;;1.05;;
53925;SDS011;39836;52.754;6.866;2022-07-23T08:35:22;3.58;;;1.25;;
53925;SDS011;39836;52.754;6.866;2022-07-23T08:37:51;2.38;;;1.17;;
53925;SDS011;39836;52.754;6.866;2022-07-23T08:40:17;3.53;;;1.55;;
53925;SDS011;39836;52.754;6.866;2022-07-23T08:42:43;3.55;;;1.30;;
53925;SDS011;39836;52.754;6.866;2022-07-23T08:45:12;4.35;;;1.20;;
53925;SDS011;39836;52.754;6.866;2022-07-23T08:47:40;2.90;;;1.30;;
53925;SDS011;39836;52.754;6.866;2022-07-23T08:50:07;4.55;;;0.95;;
53925;SDS011;39836;52.754;6.866;2022-07-23T08:52:33;5.40;;;1.13;;
53925;SDS011;39836;52.754;6.866;2022-07-23T08:55:00;3.50;;;1.30;;
53925;SDS011;39836;52.754;6.866;2022-07-23T08:57:27;2.95;;;1.20;;
53925;SDS011;39836;52.754;6.866;2022-07-23T08:59:52;3.17;;;1.10;;
53925;SDS011;39836;52.754;6.866;2022-07-23T09:02:18;2.25;;;1.10;;
53925;SDS011;39836;52.754;6.866;2022-07-23T09:04:44;4.05;;;1.17;;
53925;SDS011;39836;52.754;6.866;2022-07-23T09:07:09;3.58;;;1.08;;
53925;SDS011;39836;52.754;6.866;2022-07-23T09:09:35;3.20;;;1.30;;
53925;SDS011;39836;52.754;6.866;2022-07-23T09:12:02;4.32;;;1.50;;
53925;SDS011;39836;52.754;6.866;2022-07-23T09:14:39;5.45;;;1.20;;
53925;SDS011;39836;52.754;6.866;2022-07-23T09:17:15;2.45;;;1.00;;
53925;SDS011;39836;52.754;6.866;2022-07-23T09:25:07;2.15;;;0.85;;
53925;SDS011;39836;52.754;6.866;2022-07-23T09:30:20;3.47;;;1.25;;
53925;SDS011;39836;52.754;6.866;2022-07-23T09:35:52;1.40;;;0.82;;
53925;SDS011;39836;52.754;6.866;2022-07-23T09:38:23;2.45;;;1.08;;
53925;SDS011;39836;52.754;6.866;2022-07-23T09:43:58;3.17;;;1.15;;
53925;SDS011;39836;52.754;6.866;2022-07-23T09:46:32;3.78;;;1.10;;
53925;SDS011;39836;52.754;6.866;2022-07-23T09:48:58;2.35;;;0.80;;
53925;SDS011;39836;52.754;6.866;2022-07-23T09:54:26;1.92;;;0.80;;
53925;SDS011;39836;52.754;6.866;2022-07-23T09:57:04;3.17;;;1.00;;
53925;SDS011;39836;52.754;6.866;2022-07-23T09:59:36;0.95;;;0.80;;
53925;SDS011;39836;52.754;6.866;2022-07-23T10:02:04;1.67;;;0.90;;
53925;SDS011;39836;52.754;6.866;2022-07-23T10:04:32;3.17;;;1.00;;
53925;SDS011;39836;52.754;6.866;2022-07-23T10:06:58;1.30;;;0.80;;
53925;SDS011;39836;52.754;6.866;2022-07-23T10:09:32;3.10;;;1.10;;
53925;SDS011;39836;52.754;6.866;2022-07-23T10:12:04;1.50;;;1.00;;
53925;SDS011;39836;52.754;6.866;2022-07-23T10:14:58;7.18;;;1.10;;
53925;SDS011;39836;52.754;6.866;2022-07-23T10:17:23;2.72;;;1.55;;
53925;SDS011;39836;52.754;6.866;2022-07-23T10:19:49;5.35;;;0.88;;
53925;SDS011;39836;52.754;6.866;2022-07-23T10:22:25;2.42;;;0.90;;
53925;SDS011;39836;52.754;6.866;2022-07-23T10:27:37;2.60;;;0.80;;
53925;SDS011;39836;52.754;6.866;2022-07-23T10:30:14;1.73;;;0.90;;
53925;SDS011;39836;52.754;6.866;2022-07-23T10:35:43;1.60;;;0.80;;
53925;SDS011;39836;52.754;6.866;2022-07-23T10:38:27;2.67;;;1.00;;
53925;SDS011;39836;52.754;6.866;2022-07-23T10:41:02;1.70;;;1.10;;
53925;SDS011;39836;52.754;6.866;2022-07-23T10:43:29;3.90;;;1.08;;
53925;SDS011;39836;52.754;6.866;2022-07-23T10:45:56;4.05;;;1.00;;
53925;SDS011;39836;52.754;6.866;2022-07-23T10:48:41;2.08;;;0.98;;
53925;SDS011;39836;52.754;6.866;2022-07-23T10:59:24;2.58;;;1.20;;
53925;SDS011;39836;52.754;6.866;2022-07-23T11:01:49;3.42;;;1.08;;
53925;SDS011;39836;52.754;6.866;2022-07-23T11:04:15;1.92;;;1.00;;
53925;SDS011;39836;52.754;6.866;2022-07-23T11:09:28;1.48;;;0.90;;
53925;SDS011;39836;52.754;6.866;2022-07-23T11:17:32;4.47;;;0.90;;
53925;SDS011;39836;52.754;6.866;2022-07-23T11:22:34;3.20;;;1.20;;
53925;SDS011;39836;52.754;6.866;2022-07-23T11:25:00;3.03;;;1.35;;
53925;SDS011;39836;52.754;6.866;2022-07-23T11:27:39;1.90;;;1.00;;
53925;SDS011;39836;52.754;6.866;2022-07-23T11:30:10;3.35;;;1.20;;
53925;SDS011;39836;52.754;6.866;2022-07-23T11:35:38;2.13;;;1.05;;
53925;SDS011;39836;52.754;6.866;2022-07-23T11:40:45;1.77;;;1.17;;
53925;SDS011;39836;52.754;6.866;2022-07-23T11:43:19;2.25;;;1.40;;
53925;SDS011;39836;52.754;6.866;2022-07-23T11:45:50;2.95;;;1.30;;
53925;SDS011;39836;52.754;6.866;2022-07-23T11:48:19;3.05;;;1.20;;
53925;SDS011;39836;52.754;6.866;2022-07-23T11:50:47;1.88;;;1.10;;
53925;SDS011;39836;52.754;6.866;2022-07-23T11:53:13;4.72;;;1.63;;
53925;SDS011;39836;52.754;6.866;2022-07-23T11:55:45;4.70;;;1.00;;
53925;SDS011;39836;52.754;6.866;2022-07-23T11:58:11;2.67;;;1.23;;
53925;SDS011;39836;52.754;6.866;2022-07-23T12:00:40;3.58;;;1.23;;
53925;SDS011;39836;52.754;6.866;2022-07-23T12:03:06;3.03;;;1.10;;
53925;SDS011;39836;52.754;6.866;2022-07-23T12:05:33;2.20;;;1.02;;
53925;SDS011;39836;52.754;6.866;2022-07-23T12:08:01;2.40;;;1.15;;
53925;SDS011;39836;52.754;6.866;2022-07-23T12:10:37;4.65;;;1.38;;
53925;SDS011;39836;52.754;6.866;2022-07-23T12:13:09;3.50;;;1.65;;
53925;SDS011;39836;52.754;6.866;2022-07-23T12:15:47;2.43;;;1.30;;
53925;SDS011;39836;52.754;6.866;2022-07-23T12:18:16;1.67;;;1.02;;
53925;SDS011;39836;52.754;6.866;2022-07-23T12:20:49;2.30;;;0.98;;
53925;SDS011;39836;52.754;6.866;2022-07-23T12:23:17;3.17;;;1.30;;
53925;SDS011;39836;52.754;6.866;2022-07-23T12:25:45;3.20;;;1.20;;
53925;SDS011;39836;52.754;6.866;2022-07-23T12:28:13;5.28;;;1.30;;
53925;SDS011;39836;52.754;6.866;2022-07-23T12:30:44;2.63;;;1.20;;
53925;SDS011;39836;52.754;6.866;2022-07-23T12:33:15;3.92;;;1.42;;
53925;SDS011;39836;52.754;6.866;2022-07-23T12:35:54;2.70;;;1.40;;
53925;SDS011;39836;52.754;6.866;2022-07-23T12:38:22;3.42;;;1.42;;
53925;SDS011;39836;52.754;6.866;2022-07-23T12:40:53;2.63;;;1.20;;
53925;SDS011;39836;52.754;6.866;2022-07-23T12:48:58;9.52;;;1.38;;
53925;SDS011;39836;52.754;6.866;2022-07-23T12:53:52;3.75;;;1.40;;
53925;SDS011;39836;52.754;6.866;2022-07-23T12:59:07;2.78;;;1.20;;
53925;SDS011;39836;52.754;6.866;2022-07-23T13:01:42;3.05;;;1.60;;
53925;SDS011;39836;52.754;6.866;2022-07-23T13:04:14;4.72;;;1.40;;
53925;SDS011;39836;52.754;6.866;2022-07-23T13:07:03;2.55;;;1.40;;
53925;SDS011;39836;52.754;6.866;2022-07-23T13:09:30;2.65;;;1.30;;
53925;SDS011;39836;52.754;6.866;2022-07-23T13:11:57;3.00;;;1.60;;
53925;SDS011;39836;52.754;6.866;2022-07-23T13:14:23;2.53;;;1.30;;
53925;SDS011;39836;52.754;6.866;2022-07-23T13:16:51;2.35;;;1.30;;
53925;SDS011;39836;52.754;6.866;2022-07-23T13:19:17;1.80;;;1.20;;
53925;SDS011;39836;52.754;6.866;2022-07-23T13:21:44;2.65;;;1.40;;
53925;SDS011;39836;52.754;6.866;2022-07-23T13:24:10;2.42;;;1.20;;
53925;SDS011;39836;52.754;6.866;2022-07-23T13:26:37;2.65;;;1.38;;
53925;SDS011;39836;52.754;6.866;2022-07-23T13:29:03;5.07;;;1.73;;
53925;SDS011;39836;52.754;6.866;2022-07-23T13:31:30;3.53;;;1.45;;
53925;SDS011;39836;52.754;6.866;2022-07-23T13:33:55;3.40;;;1.40;;
53925;SDS011;39836;52.754;6.866;2022-07-23T13:36:21;6.63;;;2.13;;
53925;SDS011;39836;52.754;6.866;2022-07-23T13:38:47;3.03;;;1.40;;
53925;SDS011;39836;52.754;6.866;2022-07-23T13:41:12;2.65;;;1.35;;
53925;SDS011;39836;52.754;6.866;2022-07-23T13:43:41;3.65;;;1.48;;
53925;SDS011;39836;52.754;6.866;2022-07-23T13:46:07;4.15;;;1.50;;
53925;SDS011;39836;52.754;6.866;2022-07-23T13:48:32;1.98;;;1.35;;
53925;SDS011;39836;52.754;6.866;2022-07-23T13:50:58;5.55;;;1.38;;
53925;SDS011;39836;52.754;6.866;2022-07-23T13:53:24;2.75;;;1.10;;
53925;SDS011;39836;52.754;6.866;2022-07-23T13:55:50;2.65;;;1.52;;
53925;SDS011;39836;52.754;6.866;2022-07-23T13:58:17;3.25;;;1.30;;
53925;SDS011;39836;52.754;6.866;2022-07-23T14:00:45;4.63;;;1.50;;
53925;SDS011;39836;52.754;6.866;2022-07-23T14:03:12;4.95;;;1.50;;
53925;SDS011;39836;52.754;6.866;2022-07-23T14:05:39;5.72;;;1.65;;
53925;SDS011;39836;52.754;6.866;2022-07-23T14:08:05;2.03;;;1.20;;
53925;SDS011;39836;52.754;6.866;2022-07-23T14:10:31;4.63;;;1.38;;
53925;SDS011;39836;52.754;6.866;2022-07-23T14:12:57;2.00;;;1.13;;
53925;SDS011;39836;52.754;6.866;2022-07-23T14:15:24;4.45;;;1.25;;
53925;SDS011;39836;52.754;6.866;2022-07-23T14:17:51;2.47;;;1.35;;
53925;SDS011;39836;52.754;6.866;2022-07-23T14:20:18;3.47;;;1.20;;
53925;SDS011;39836;52.754;6.866;2022-07-23T14:22:45;1.73;;;1.13;;
53925;SDS011;39836;52.754;6.866;2022-07-23T14:25:10;2.67;;;1.20;;
53925;SDS011;39836;52.754;6.866;2022-07-23T14:27:36;2.88;;;1.30;;
53925;SDS011;39836;52.754;6.866;2022-07-23T14:30:03;3.00;;;1.20;;
53925;SDS011;39836;52.754;6.866;2022-07-23T14:32:30;4.22;;;1.30;;
53925;SDS011;39836;52.754;6.866;2022-07-23T14:34:56;2.60;;;1.20;;
53925;SDS011;39836;52.754;6.866;2022-07-23T14:37:22;3.05;;;1.50;;
53925;SDS011;39836;52.754;6.866;2022-07-23T14:39:47;3.78;;;1.30;;
53925;SDS011;39836;52.754;6.866;2022-07-23T14:42:14;3.25;;;1.20;;
53925;SDS011;39836;52.754;6.866;2022-07-23T14:44:40;2.30;;;1.10;;
53925;SDS011;39836;52.754;6.866;2022-07-23T14:47:07;4.65;;;1.40;;
53925;SDS011;39836;52.754;6.866;2022-07-23T14:49:33;3.85;;;1.60;;
53925;SDS011;39836;52.754;6.866;2022-07-23T14:51:59;1.45;;;1.00;;
53925;SDS011;39836;52.754;6.866;2022-07-23T14:54:26;3.60;;;1.20;;
53925;SDS011;39836;52.754;6.866;2022-07-23T14:56:53;3.45;;;1.30;;
53925;SDS011;39836;52.754;6.866;2022-07-23T14:59:19;2.97;;;1.13;;
53925;SDS011;39836;52.754;6.866;2022-07-23T15:01:45;2.00;;;1.00;;
53925;SDS011;39836;52.754;6.866;2022-07-23T15:04:10;3.63;;;1.10;;
53925;SDS011;39836;52.754;6.866;2022-07-23T15:06:36;1.88;;;1.13;;
53925;SDS011;39836;52.754;6.866;2022-07-23T15:09:04;7.60;;;1.23;;
53925;SDS011;39836;52.754;6.866;2022-07-23T15:11:30;2.63;;;1.00;;
53925;SDS011;39836;52.754;6.866;2022-07-23T15:13:59;4.13;;;1.42;;
53925;SDS011;39836;52.754;6.866;2022-07-23T15:16:25;2.40;;;1.13;;
53925;SDS011;39836;52.754;6.866;2022-07-23T15:18:51;3.15;;;1.10;;
53925;SDS011;39836;52.754;6.866;2022-07-23T15:21:17;3.60;;;1.30;;
53925;SDS011;39836;52.754;6.866;2022-07-23T15:23:43;3.58;;;1.48;;
53925;SDS011;39836;52.754;6.866;2022-07-23T15:26:09;3.33;;;1.40;;
53925;SDS011;39836;52.754;6.866;2022-07-23T15:28:34;3.42;;;1.40;;
53925;SDS011;39836;52.754;6.866;2022-07-23T15:31:01;3.22;;;1.20;;
53925;SDS011;39836;52.754;6.866;2022-07-23T15:33:27;4.93;;;1.40;;
53925;SDS011;39836;52.754;6.866;2022-07-23T15:35:53;3.03;;;1.13;;
53925;SDS011;39836;52.754;6.866;2022-07-23T15:38:21;3.00;;;1.00;;
53925;SDS011;39836;52.754;6.866;2022-07-23T15:40:47;3.00;;;1.20;;
53925;SDS011;39836;52.754;6.866;2022-07-23T15:43:13;3.00;;;1.10;;